Time;durP1;ratioP1;P1;durP2;ratioP2;P2;SDS_P1;SDS_P2;PMS_P1;PMS_P2;Temp;Humidity;BMP_temperature;BMP_pressure;BME280_temperature;BME280_humidity;BME280_pressure;Samples;Min_cycle;Max_cycle;Signal;HPM_P1;HPM_P2
2022/08/11 00:01:24;;;;;;;3.70;2.63;;;19.20;99.90;;;;;;5062525;28;20052;-73
2022/08/11 00:04:02;;;;;;;5.25;3.05;;;19.20;99.90;;;;;;5058875;28;20040;-73
2022/08/11 00:06:34;;;;;;;3.72;3.00;;;19.20;99.90;;;;;;5065263;28;20494;-74
2022/08/11 00:09:01;;;;;;;3.40;3.10;;;19.20;99.90;;;;;;5051090;28;20032;-73
2022/08/11 00:11:35;;;;;;;3.85;3.05;;;19.10;99.90;;;;;;5061588;28;20186;-71
2022/08/11 00:14:03;;;;;;;3.53;3.20;;;19.10;99.90;;;;;;5060067;28;20075;-70
2022/08/11 00:16:30;;;;;;;4.18;3.60;;;19.10;99.90;;;;;;5059530;28;20044;-71
2022/08/11 00:18:57;;;;;;;3.50;3.08;;;19.00;99.90;;;;;;5060557;28;20074;-72
2022/08/11 00:21:25;;;;;;;3.47;3.17;;;19.00;99.90;;;;;;5043757;28;20048;-70
2022/08/11 00:23:57;;;;;;;3.60;3.30;;;19.00;99.90;;;;;;5058137;28;20040;-70
2022/08/11 00:26:24;;;;;;;4.65;3.53;;;19.00;99.90;;;;;;5062817;28;20044;-71
2022/08/11 00:28:51;;;;;;;4.70;3.30;;;19.30;99.90;;;;;;5054066;28;20033;-72
2022/08/11 00:31:22;;;;;;;3.33;3.03;;;19.10;99.90;;;;;;5046672;28;20079;-71
2022/08/11 00:33:49;;;;;;;5.82;3.58;;;18.90;99.90;;;;;;5058192;28;20053;-73
2022/08/11 00:36:17;;;;;;;6.70;4.00;;;18.90;99.90;;;;;;5042417;28;20045;-73
2022/08/11 00:38:47;;;;;;;3.80;3.50;;;18.80;99.90;;;;;;5059439;28;20037;-74
2022/08/11 00:41:27;;;;;;;3.42;3.13;;;18.80;99.90;;;;;;5060856;28;20036;-74
2022/08/11 00:44:44;;;;;;;3.35;3.10;;;18.70;99.90;;;;;;5059239;28;20040;-71
2022/08/11 00:47:28;;;;;;;3.53;3.30;;;18.70;99.90;;;;;;5013514;28;20045;-70
2022/08/11 00:50:06;;;;;;;4.95;3.28;;;18.70;99.90;;;;;;5062829;28;20478;-70
2022/08/11 00:52:38;;;;;;;5.00;3.17;;;18.60;99.90;;;;;;5053015;28;20048;-71
2022/08/11 00:55:16;;;;;;;5.88;3.53;;;18.60;99.90;;;;;;5051176;28;20047;-71
2022/08/11 00:57:55;;;;;;;5.00;3.72;;;18.60;99.90;;;;;;5054730;28;20041;-71
2022/08/11 01:00:23;;;;;;;4.22;3.83;;;18.50;99.90;;;;;;5061533;28;20504;-70
2022/08/11 01:03:12;;;;;;;5.60;3.35;;;18.50;99.90;;;;;;5057540;28;20111;-70
2022/08/11 01:05:59;;;;;;;3.83;3.47;;;18.40;99.90;;;;;;5054575;28;20052;-70
2022/08/11 01:08:31;;;;;;;4.22;3.50;;;18.40;99.90;;;;;;5060707;28;20043;-70
2022/08/11 01:11:24;;;;;;;4.35;3.50;;;18.30;99.90;;;;;;5058535;28;20049;-70
2022/08/11 01:14:27;;;;;;;5.43;3.60;;;18.30;99.90;;;;;;5058302;28;20087;-70
2022/08/11 01:17:23;;;;;;;3.75;3.30;;;18.30;99.90;;;;;;5063662;28;20143;-70
2022/08/11 01:20:30;;;;;;;3.30;3.10;;;18.30;99.90;;;;;;5055794;28;20524;-70
2022/08/11 01:23:46;;;;;;;4.35;3.45;;;18.30;99.90;;;;;;5057525;28;20488;-70
2022/08/11 01:26:53;;;;;;;6.65;3.75;;;18.10;99.90;;;;;;5053639;28;20044;-73
2022/08/11 01:29:39;;;;;;;4.38;3.97;;;18.10;99.90;;;;;;5051320;28;20400;-74
2022/08/11 01:32:13;;;;;;;4.82;3.55;;;18.00;99.90;;;;;;5057470;28;20527;-74
2022/08/11 01:34:47;;;;;;;6.78;3.70;;;18.10;99.90;;;;;;5058910;28;20377;-72
2022/08/11 01:37:35;;;;;;;;;;;18.00;99.90;;;;;;5042483;28;20165;-71
2022/08/11 01:40:12;;;;;;;4.55;3.47;;;18.00;99.90;;;;;;5038147;28;20372;-73
2022/08/11 01:46:25;;;;;;;4.93;4.43;;;18.00;99.90;;;;;;5055535;28;20045;-70
2022/08/11 01:49:16;;;;;;;5.57;4.75;;;18.00;99.90;;;;;;5039479;28;20506;-71
2022/08/11 01:52:02;;;;;;;6.25;4.40;;;17.90;99.90;;;;;;5043090;28;20101;-71
2022/08/11 01:54:45;;;;;;;6.25;4.18;;;17.90;99.90;;;;;;5056030;28;20120;-71
2022/08/11 01:57:37;;;;;;;6.25;4.53;;;17.90;99.90;;;;;;5052289;28;20041;-71
2022/08/11 02:00:15;;;;;;;5.18;4.68;;;17.90;99.90;;;;;;5063895;28;20132;-70
2022/08/11 02:03:07;;;;;;;8.18;4.88;;;17.80;99.90;;;;;;5055252;28;20048;-69
2022/08/11 02:05:59;;;;;;;5.20;4.78;;;17.80;99.90;;;;;;5058339;28;20404;-72
2022/08/11 02:08:55;;;;;;;5.38;4.72;;;17.80;99.90;;;;;;5051781;28;20056;-70
2022/08/11 02:11:31;;;;;;;5.80;5.07;;;17.80;99.90;;;;;;5042813;28;20513;-74
2022/08/11 02:14:19;;;;;;;6.88;5.35;;;17.70;99.90;;;;;;5055874;28;20037;-74
2022/08/11 02:16:47;;;;;;;5.28;4.72;;;17.70;99.90;;;;;;5041144;28;20488;-73
2022/08/11 02:25:02;;;;;;;7.68;5.47;;;17.70;99.90;;;;;;5054642;28;20068;-72
2022/08/11 02:27:41;;;;;;;5.55;5.05;;;17.80;99.90;;;;;;5043134;28;20072;-73
2022/08/11 02:30:13;;;;;;;6.25;5.50;;;17.70;99.90;;;;;;5055182;28;20512;-75
2022/08/11 02:36:11;;;;;;;7.15;5.30;;;17.70;99.90;;;;;;5053099;28;20493;-73
2022/08/11 02:38:44;;;;;;;6.13;5.43;;;17.70;99.90;;;;;;5053279;28;20041;-74
2022/08/11 02:44:29;;;;;;;8.63;5.93;;;17.70;99.90;;;;;;5062269;28;20049;-71
2022/08/11 02:47:05;;;;;;;6.55;5.93;;;17.70;99.90;;;;;;5061707;28;20036;-71
2022/08/11 02:49:53;;;;;;;6.78;5.93;;;17.70;99.90;;;;;;5019959;28;20045;-71
2022/08/11 02:52:44;;;;;;;7.53;5.72;;;17.70;99.90;;;;;;5054668;28;20099;-71
2022/08/11 02:55:41;;;;;;;7.15;6.45;;;17.70;99.90;;;;;;5046546;28;20053;-71
2022/08/11 02:58:16;;;;;;;6.90;5.93;;;17.70;99.90;;;;;;5061480;28;20596;-71
2022/08/11 03:01:15;;;;;;;6.25;5.70;;;17.60;99.90;;;;;;5062259;28;20040;-72
2022/08/11 03:03:47;;;;;;;7.25;6.30;;;17.60;99.90;;;;;;5060472;28;20057;-71
2022/08/11 03:06:36;;;;;;;6.20;5.60;;;17.70;99.90;;;;;;5038746;28;20072;-71
2022/08/11 03:09:17;;;;;;;6.68;6.07;;;17.70;99.90;;;;;;5065369;28;20052;-71
2022/08/11 03:18:05;;;;;;;8.55;6.97;;;17.60;99.90;;;;;;5062133;28;20048;-72
2022/08/11 03:20:57;;;;;;;9.10;6.38;;;17.50;99.90;;;;;;5043993;28;20052;-71
2022/08/11 03:23:51;;;;;;;7.20;6.50;;;17.40;99.90;;;;;;5057758;28;20047;-71
2022/08/11 03:26:38;;;;;;;7.15;6.45;;;17.40;99.90;;;;;;5053453;28;20044;-71
2022/08/11 03:29:22;;;;;;;8.10;7.00;;;17.40;99.90;;;;;;5037162;28;20092;-70
2022/08/11 03:31:47;;;;;;;7.95;7.05;;;17.40;99.90;;;;;;5061228;28;20044;-74
2022/08/11 03:34:19;;;;;;;8.02;6.78;;;17.30;99.90;;;;;;5061915;28;20090;-73
2022/08/11 03:36:53;;;;;;;9.10;6.65;;;17.30;99.90;;;;;;5042260;28;20048;-73
2022/08/11 03:39:54;;;;;;;8.68;7.22;;;17.30;99.90;;;;;;5050648;28;20484;-73
2022/08/11 03:42:26;;;;;;;6.90;6.07;;;17.30;99.90;;;;;;5037103;28;20063;-72
2022/08/11 03:45:29;;;;;;;7.63;6.65;;;17.30;99.90;;;;;;5061261;28;20044;-72
2022/08/11 03:48:14;;;;;;;8.00;7.28;;;17.40;99.90;;;;;;5063291;28;20086;-71
2022/08/11 03:50:39;;;;;;;;;;;17.40;99.90;;;;;;5057381;28;20045;-73
2022/08/11 03:53:42;;;;;;;9.65;7.15;;;17.40;99.90;;;;;;5042665;28;19927;-73
2022/08/11 03:56:46;;;;;;;7.95;7.15;;;17.40;99.90;;;;;;5057912;28;20049;-72
2022/08/11 03:59:33;;;;;;;9.18;8.20;;;17.40;99.90;;;;;;5064424;28;20049;-70
2022/08/11 04:02:20;;;;;;;9.23;8.00;;;17.40;99.90;;;;;;5059419;28;20071;-73
2022/08/11 04:05:16;;;;;;;8.20;7.32;;;17.30;99.90;;;;;;5058603;28;20045;-69
2022/08/11 04:07:55;;;;;;;9.48;7.63;;;17.30;99.90;;;;;;5059560;28;20512;-70
2022/08/11 04:10:49;;;;;;;9.25;7.53;;;17.30;99.90;;;;;;5061046;28;20033;-70
2022/08/11 04:13:52;;;;;;;9.48;8.43;;;17.30;99.90;;;;;;5058325;28;20040;-72
2022/08/11 04:16:43;;;;;;;8.52;7.75;;;17.40;99.90;;;;;;5049965;28;20040;-73
2022/08/11 04:19:48;;;;;;;11.45;8.02;;;17.40;99.90;;;;;;5059956;28;20033;-74
2022/08/11 04:22:20;;;;;;;12.55;9.30;;;17.30;99.90;;;;;;5019238;28;20052;-73
2022/08/11 04:25:27;;;;;;;10.10;9.10;;;17.30;99.90;;;;;;5061435;28;20408;-73
2022/08/11 04:28:18;;;;;;;12.63;8.55;;;17.20;99.90;;;;;;5061309;28;20044;-74
2022/08/11 04:31:23;;;;;;;10.63;9.05;;;17.20;99.90;;;;;;5058963;28;20044;-71
2022/08/11 04:33:58;;;;;;;11.15;8.75;;;17.10;99.90;;;;;;5057562;28;20056;-70
2022/08/11 04:39:59;;;;;;;9.25;8.35;;;17.10;99.90;;;;;;5050133;28;20079;-69
2022/08/11 04:46:05;;;;;;;11.70;10.07;;;17.10;99.90;;;;;;5055409;28;20477;-74
2022/08/11 05:02:00;;;;;;;12.57;10.85;;;17.00;99.90;;;;;;5055507;28;20063;-69
2022/08/11 05:07:19;;;;;;;12.55;10.10;;;16.90;99.90;;;;;;5058175;28;20052;-70
2022/08/11 05:10:15;;;;;;;9.15;8.25;;;16.90;99.90;;;;;;5063241;28;20047;-70
2022/08/11 05:27:09;;;;;;;13.98;10.00;;;17.00;99.90;;;;;;5054322;28;20036;-70
2022/08/11 05:36:16;;;;;;;10.52;8.73;;;17.20;99.90;;;;;;5058591;28;20048;-71
2022/08/11 05:58:14;;;;;;;10.27;8.45;;;17.40;99.90;;;;;;5064105;28;20076;-72
2022/08/11 06:00:45;;;;;;;11.02;8.10;;;17.40;99.90;;;;;;5055136;28;20132;-72
2022/08/11 06:03:21;;;;;;;12.18;8.13;;;17.40;99.90;;;;;;5057966;28;20041;-71
2022/08/11 06:05:47;;;;;;;11.65;9.70;;;17.50;99.90;;;;;;5059387;28;20393;-71
2022/08/11 06:08:13;;;;;;;13.40;9.38;;;18.20;99.90;;;;;;5057103;28;20037;-71
2022/08/11 06:10:42;;;;;;;9.95;8.95;;;17.60;99.90;;;;;;5060712;28;20070;-72
2022/08/11 06:13:09;;;;;;;11.43;8.98;;;17.60;99.90;;;;;;5056362;28;20033;-72
2022/08/11 06:15:47;;;;;;;9.82;8.68;;;18.10;99.90;;;;;;5041609;28;20067;-70
2022/08/11 06:18:14;;;;;;;10.68;8.27;;;17.70;99.90;;;;;;5060073;28;20397;-71
2022/08/11 06:20:51;;;;;;;9.73;8.18;;;17.80;99.90;;;;;;5066860;28;20043;-71
2022/08/11 06:23:19;;;;;;;12.15;8.57;;;17.80;99.90;;;;;;5060974;28;20033;-70
2022/08/11 06:25:46;;;;;;;10.75;8.98;;;17.80;99.90;;;;;;5063534;28;20060;-70
2022/08/11 06:28:14;;;;;;;10.38;9.25;;;17.90;99.90;;;;;;5042469;28;20037;-70
2022/08/11 06:30:42;;;;;;;9.68;8.68;;;18.00;99.90;;;;;;5063455;28;20052;-72
2022/08/11 06:33:11;;;;;;;9.25;7.85;;;18.00;99.90;;;;;;5062667;28;20089;-71
2022/08/11 06:36:05;;;;;;;12.10;6.97;;;17.90;99.90;;;;;;5062366;28;20044;-70
2022/08/11 06:38:49;;;;;;;10.67;6.73;;;18.00;99.90;;;;;;5038470;28;20041;-71
2022/08/11 06:41:32;;;;;;;8.77;7.50;;;18.00;99.90;;;;;;5066807;28;20105;-72
2022/08/11 06:44:14;;;;;;;10.60;7.38;;;18.20;99.90;;;;;;5059430;28;20037;-71
2022/08/11 06:46:49;;;;;;;8.52;7.20;;;18.20;99.90;;;;;;5053478;28;20033;-70
2022/08/11 06:52:08;;;;;;;10.27;6.43;;;18.60;99.90;;;;;;5063050;28;20484;-71
2022/08/11 06:54:40;;;;;;;12.00;7.05;;;18.30;99.90;;;;;;5058190;28;20091;-71
2022/08/11 07:02:47;;;;;;;6.57;5.97;;;18.40;99.90;;;;;;5050772;28;20036;-72
2022/08/11 07:05:24;;;;;;;8.02;5.32;;;18.60;99.90;;;;;;5060059;28;20076;-73
2022/08/11 07:17:20;;;;;;;8.57;6.28;;;18.80;99.90;;;;;;5061133;28;20475;-70
2022/08/11 07:28:54;;;;;;;9.75;5.10;;;18.90;99.90;;;;;;5052943;28;20454;-70
2022/08/11 07:31:20;;;;;;;6.95;3.50;;;19.10;99.90;;;;;;5059077;28;20049;-71
2022/08/11 07:33:53;;;;;;;5.20;3.40;;;19.30;99.90;;;;;;5062927;28;20047;-71
2022/08/11 07:36:21;;;;;;;7.40;4.00;;;19.40;99.90;;;;;;5060785;28;20040;-70
2022/08/11 07:38:50;;;;;;;5.63;3.60;;;19.40;99.90;;;;;;5020930;28;20041;-73
2022/08/11 07:41:22;;;;;;;5.72;3.92;;;19.40;99.90;;;;;;5061561;28;20059;-71
2022/08/11 07:44:08;;;;;;;6.72;3.15;;;19.50;99.90;;;;;;5057712;28;20041;-72
2022/08/11 07:52:32;;;;;;;3.55;2.90;;;19.80;99.90;;;;;;5061151;28;20045;-74
2022/08/11 07:55:24;;;;;;;3.50;3.17;;;19.90;99.90;;;;;;5062310;28;20040;-74
2022/08/11 08:19:57;;;;;;;8.02;1.90;;;20.70;99.90;;;;;;5053872;28;20401;-73
2022/08/11 08:22:23;;;;;;;5.68;1.67;;;20.70;99.90;;;;;;5059537;28;20042;-74
2022/08/11 08:24:51;;;;;;;1.95;1.70;;;20.80;99.90;;;;;;5064777;28;20079;-71
2022/08/11 08:27:19;;;;;;;2.70;2.00;;;21.00;99.90;;;;;;5052012;28;20115;-73
2022/08/11 08:32:31;;;;;;;3.47;1.52;;;21.10;99.90;;;;;;5059212;28;20095;-73
2022/08/11 08:34:58;;;;;;;5.53;1.50;;;21.20;99.90;;;;;;5058774;28;20076;-73
2022/08/11 08:37:28;;;;;;;6.10;1.30;;;21.40;99.90;;;;;;5058428;28;20116;-74
2022/08/11 08:39:54;;;;;;;3.03;1.30;;;21.50;99.90;;;;;;5065503;28;20045;-73
2022/08/11 08:42:26;;;;;;;1.98;1.08;;;21.70;99.90;;;;;;5042815;28;20112;-74
2022/08/11 08:44:58;;;;;;;3.63;1.73;;;21.90;99.90;;;;;;5061356;28;20036;-72
2022/08/11 08:47:25;;;;;;;3.35;1.33;;;22.00;99.90;;;;;;5060147;28;20044;-75
2022/08/11 08:50:00;;;;;;;6.28;1.50;;;22.00;99.90;;;;;;5039245;28;20063;-74
2022/08/11 08:52:30;;;;;;;8.38;1.63;;;22.10;99.90;;;;;;5064744;28;20543;-74
2022/08/11 08:55:01;;;;;;;3.60;1.10;;;22.10;99.90;;;;;;5050499;28;20049;-71
2022/08/11 08:57:28;;;;;;;3.50;1.27;;;22.10;99.90;;;;;;5063746;28;20477;-74
2022/08/11 08:59:55;;;;;;;2.53;1.40;;;22.30;99.90;;;;;;5057098;28;20341;-71
2022/08/11 09:02:25;;;;;;;2.33;1.00;;;22.30;99.90;;;;;;5064350;28;20056;-71
2022/08/11 09:04:51;;;;;;;2.55;0.88;;;22.30;99.90;;;;;;5057043;28;20499;-74
2022/08/11 09:07:21;;;;;;;10.38;1.27;;;22.30;99.90;;;;;;5047067;28;20044;-72
2022/08/11 09:09:50;;;;;;;3.88;0.77;;;22.40;99.90;;;;;;5032946;28;20037;-72
2022/08/11 09:12:18;;;;;;;3.28;1.02;;;22.60;99.90;;;;;;5057078;28;20052;-71
2022/08/11 09:15:05;;;;;;;2.70;0.88;;;22.70;99.90;;;;;;5063129;28;20112;-71
2022/08/11 09:17:42;;;;;;;3.50;0.88;;;22.70;99.90;;;;;;5055981;28;20099;-74
2022/08/11 09:20:25;;;;;;;6.75;1.73;;;22.70;99.90;;;;;;5060468;28;20045;-71
2022/08/11 09:28:43;;;;;;;3.38;1.13;;;22.90;99.90;;;;;;4994884;28;20050;-72
2022/08/11 09:31:11;;;;;;;6.13;1.10;;;23.10;99.90;;;;;;5026777;28;20409;-71
2022/08/11 09:33:38;;;;;;;1.13;0.85;;;23.10;99.90;;;;;;5039857;28;20500;-71
2022/08/11 09:40:27;;;;;;;4.20;1.65;;;23.30;99.90;;;;;;5059638;28;20089;-72
2022/08/11 09:41:38;;;;;;;4.72;1.25;;;23.40;99.90;;;;;;5046586;28;20421;-72
2022/08/11 09:46:51;;;;;;;3.88;1.05;;;23.60;99.90;;;;;;5056517;28;20049;-72
2022/08/11 09:49:19;;;;;;;3.42;0.90;;;23.70;99.90;;;;;;5051397;28;20094;-71
2022/08/11 09:51:46;;;;;;;5.22;0.98;;;23.80;99.90;;;;;;5055117;28;20044;-74
2022/08/11 09:54:12;;;;;;;3.60;0.98;;;23.90;99.90;;;;;;5059957;28;20076;-74
2022/08/11 09:59:22;;;;;;;;;;;24.10;99.90;;;;;;5062236;28;20047;-74
2022/08/11 10:01:58;;;;;;;4.22;1.40;;;24.00;99.90;;;;;;5038724;28;19928;-74
2022/08/11 10:04:44;;;;;;;2.80;1.05;;;24.20;99.90;;;;;;5047587;28;20129;-74
2022/08/11 10:07:14;;;;;;;4.82;1.00;;;24.20;99.90;;;;;;5054345;28;20095;-74
2022/08/11 10:09:46;;;;;;;2.88;1.10;;;24.30;99.90;;;;;;5063889;28;20321;-72
2022/08/11 10:12:26;;;;;;;2.83;0.98;;;24.30;99.90;;;;;;5055537;28;20037;-73
2022/08/11 10:18:40;;;;;;;1.42;0.77;;;24.60;99.90;;;;;;5056042;28;20041;-72
2022/08/11 10:20:33;;;;;;;3.97;1.13;;;24.70;99.90;;;;;;5055798;28;20060;-73
2022/08/11 10:28:31;;;;;;;2.50;0.82;;;25.10;99.90;;;;;;5059676;28;20045;-74
2022/08/11 10:33:59;;;;;;;2.25;0.93;;;25.30;99.90;;;;;;5056904;28;20048;-74
2022/08/11 10:36:34;;;;;;;2.80;1.13;;;25.40;99.40;;;;;;5062263;28;20041;-74
2022/08/11 10:39:02;;;;;;;4.03;0.85;;;25.50;99.30;;;;;;5052594;28;20041;-74
2022/08/11 10:44:13;;;;;;;2.17;0.80;;;25.70;98.30;;;;;;5053244;28;20052;-73
2022/08/11 10:49:25;;;;;;;1.42;0.60;;;25.50;97.80;;;;;;5040882;28;20053;-73
2022/08/11 11:00:14;;;;;;;1.08;0.55;;;26.30;96.70;;;;;;5041202;28;20505;-74
2022/08/11 11:02:43;;;;;;;3.10;0.60;;;26.40;95.30;;;;;;5057906;28;20045;-73
2022/08/11 11:05:23;;;;;;;5.60;0.80;;;26.50;94.50;;;;;;5062047;28;20051;-70
2022/08/11 11:07:56;;;;;;;0.80;0.63;;;26.50;94.40;;;;;;5066043;28;20052;-73
2022/08/11 11:10:22;;;;;;;3.03;0.97;;;26.60;93.80;;;;;;5059472;28;20033;-71
2022/08/11 11:18:34;;;;;;;5.68;0.80;;;26.90;93.60;;;;;;5061674;28;20048;-71
2022/08/11 11:21:14;;;;;;;5.07;0.77;;;27.00;92.70;;;;;;5044142;28;20040;-72
2022/08/11 11:24:12;;;;;;;6.75;0.82;;;27.10;92.70;;;;;;5025636;28;20537;-71
2022/08/11 11:27:06;;;;;;;1.73;0.70;;;27.20;92.10;;;;;;5062481;28;20614;-74
2022/08/11 11:29:58;;;;;;;6.13;1.30;;;27.40;92.20;;;;;;5060428;28;20119;-74
2022/08/11 11:32:30;;;;;;;3.38;0.85;;;27.40;92.20;;;;;;5042431;28;20501;-72
2022/08/11 11:35:17;;;;;;;2.38;0.60;;;27.60;91.80;;;;;;5067226;28;20056;-72
2022/08/11 11:37:47;;;;;;;3.35;0.75;;;27.70;91.50;;;;;;5058615;28;20086;-72
2022/08/11 11:40:16;;;;;;;3.63;0.50;;;27.90;91.50;;;;;;5061793;28;20496;-71
2022/08/11 11:42:44;;;;;;;2.80;0.80;;;28.00;90.50;;;;;;5059356;28;20382;-71
2022/08/11 11:45:14;;;;;;;9.10;0.50;;;28.20;88.40;;;;;;5043988;28;20066;-73
2022/08/11 11:47:40;;;;;;;1.83;0.60;;;28.20;88.20;;;;;;5042989;28;20045;-72
2022/08/11 11:50:08;;;;;;;5.15;0.70;;;28.30;87.60;;;;;;5044639;28;20083;-70
2022/08/11 11:52:34;;;;;;;2.85;0.63;;;28.40;86.20;;;;;;5062412;28;20070;-71
2022/08/11 11:55:01;;;;;;;2.10;0.57;;;28.50;85.30;;;;;;5053448;28;20044;-70
2022/08/11 12:02:59;;;;;;;1.85;0.60;;;28.80;84.70;;;;;;5059887;28;20094;-72
2022/08/11 12:05:26;;;;;;;2.83;0.80;;;28.90;82.80;;;;;;5058229;28;20110;-72
2022/08/11 12:10:48;;;;;;;4.90;0.57;;;29.10;81.90;;;;;;5052801;28;20432;-72
2022/08/11 12:16:14;;;;;;;1.45;0.65;;;29.30;81.90;;;;;;5030018;28;20052;-72
2022/08/11 12:18:42;;;;;;;3.72;0.77;;;29.40;81.20;;;;;;5060308;28;20041;-72
2022/08/11 12:21:09;;;;;;;1.75;0.43;;;29.50;81.40;;;;;;5061126;28;20065;-71
2022/08/11 12:29:10;;;;;;;1.13;0.55;;;29.70;77.20;;;;;;5060357;28;20145;-71
2022/08/11 12:31:38;;;;;;;0.95;0.50;;;29.80;78.30;;;;;;5060908;28;20060;-73
2022/08/11 12:34:15;;;;;;;3.30;0.70;;;29.90;77.80;;;;;;5059328;28;20037;-72
2022/08/11 12:36:47;;;;;;;1.38;0.50;;;29.90;76.70;;;;;;5061123;28;20507;-71
2022/08/11 12:39:18;;;;;;;5.07;0.60;;;30.00;76.80;;;;;;5058070;28;20154;-71
2022/08/11 12:47:18;;;;;;;3.28;0.77;;;30.30;76.00;;;;;;5051347;28;20056;-72
2022/08/11 12:52:35;;;;;;;4.70;0.50;;;30.40;75.60;;;;;;5048983;28;20052;-72
2022/08/11 12:55:12;;;;;;;1.85;0.80;;;30.50;75.10;;;;;;5057733;28;20047;-74
2022/08/11 13:06:04;;;;;;;2.13;0.60;;;30.70;74.00;;;;;;5064751;28;20045;-72
2022/08/11 13:08:34;;;;;;;2.30;0.80;;;30.80;74.00;;;;;;5056567;28;20036;-72
2022/08/11 13:13:48;;;;;;;1.08;0.50;;;30.80;73.20;;;;;;5057155;28;20041;-72
2022/08/11 13:16:15;;;;;;;1.08;0.38;;;30.90;73.60;;;;;;5059632;28;20139;-72
2022/08/11 13:18:42;;;;;;;2.20;0.57;;;31.00;72.80;;;;;;5059751;28;20032;-72
2022/08/11 13:21:12;;;;;;;1.48;0.60;;;31.00;71.60;;;;;;5058142;28;20487;-72
2022/08/11 13:23:39;;;;;;;3.08;0.60;;;30.90;70.20;;;;;;5060465;28;20037;-74
2022/08/11 13:26:07;;;;;;;5.70;0.60;;;30.80;70.70;;;;;;5058357;28;20098;-72
2022/08/11 13:28:35;;;;;;;0.77;0.40;;;31.00;71.00;;;;;;5043964;28;20037;-72
2022/08/11 13:31:10;;;;;;;6.88;1.08;;;31.10;71.40;;;;;;5051076;28;20048;-72
2022/08/11 13:33:45;;;;;;;4.20;0.90;;;31.10;71.70;;;;;;5060182;28;20587;-72
2022/08/11 13:36:13;;;;;;;4.55;0.98;;;31.10;71.70;;;;;;5057081;28;20515;-72
2022/08/11 13:38:41;;;;;;;3.22;0.63;;;31.10;72.20;;;;;;5059824;28;20044;-72
2022/08/11 13:41:37;;;;;;;5.30;1.02;;;31.10;71.50;;;;;;5058078;28;20044;-72
2022/08/11 13:43:54;;;;;;;6.18;0.70;;;31.10;70.70;;;;;;5058484;28;20037;-73
2022/08/11 13:46:23;;;;;;;1.30;0.50;;;31.20;71.20;;;;;;5048967;28;20040;-73
2022/08/11 13:48:54;;;;;;;2.65;0.60;;;31.10;71.10;;;;;;5056355;28;20044;-72
2022/08/11 13:51:34;;;;;;;1.15;0.50;;;31.20;71.00;;;;;;5059998;28;20102;-73
2022/08/11 13:54:02;;;;;;;1.25;0.63;;;31.20;70.90;;;;;;5063827;28;20037;-73
2022/08/11 13:56:28;;;;;;;1.88;0.35;;;31.20;71.10;;;;;;5056078;28;20123;-73
2022/08/11 13:58:55;;;;;;;4.07;0.50;;;31.20;70.30;;;;;;5064260;28;20481;-74
2022/08/11 14:01:25;;;;;;;1.80;0.63;;;31.30;69.30;;;;;;5038819;28;20057;-73
2022/08/11 14:03:52;;;;;;;4.35;0.73;;;31.20;69.10;;;;;;5055616;28;20048;-72
2022/08/11 14:06:20;;;;;;;1.00;0.68;;;31.10;68.80;;;;;;5062991;28;20056;-74
2022/08/11 14:08:46;;;;;;;3.55;0.57;;;31.10;69.00;;;;;;5056456;28;20116;-74
2022/08/11 14:14:00;;;;;;;2.05;0.57;;;31.30;69.10;;;;;;5053178;28;20045;-73
2022/08/11 14:16:41;;;;;;;2.92;0.70;;;31.20;69.10;;;;;;5049067;28;20083;-72
2022/08/11 14:19:11;;;;;;;3.50;0.50;;;31.30;69.20;;;;;;5054190;28;20056;-71
2022/08/11 14:24:26;;;;;;;3.15;0.77;;;31.10;67.60;;;;;;5059342;28;20253;-72
2022/08/11 14:26:53;;;;;;;2.25;0.73;;;31.10;67.70;;;;;;5024168;28;20094;-72
2022/08/11 14:29:21;;;;;;;4.38;0.40;;;31.00;67.20;;;;;;5058790;28;20069;-71
2022/08/11 14:31:56;;;;;;;3.05;0.65;;;30.90;66.60;;;;;;5059029;28;20098;-72
2022/08/11 14:34:25;;;;;;;1.27;0.50;;;30.90;67.30;;;;;;5038481;28;20057;-72
2022/08/11 14:37:02;;;;;;;2.63;0.60;;;30.90;68.00;;;;;;5061344;28;20045;-73
2022/08/11 14:39:35;;;;;;;1.25;0.50;;;30.90;67.90;;;;;;5051966;28;20044;-71
2022/08/11 14:47:43;;;;;;;1.38;0.38;;;31.00;68.00;;;;;;5057034;28;20049;-72
2022/08/11 14:50:16;;;;;;;3.60;0.70;;;30.90;68.00;;;;;;5061944;28;20059;-71
2022/08/11 14:52:48;;;;;;;3.00;0.68;;;30.80;67.20;;;;;;5062263;28;20514;-72
2022/08/11 14:58:01;;;;;;;1.17;0.70;;;30.70;66.80;;;;;;5062717;28;20044;-71
2022/08/11 15:00:27;;;;;;;4.10;0.77;;;30.70;66.90;;;;;;5061897;28;20040;-73
2022/08/11 15:03:09;;;;;;;2.38;0.80;;;30.60;67.30;;;;;;5059762;28;20033;-72
2022/08/11 15:05:46;;;;;;;2.35;0.65;;;30.50;66.80;;;;;;5053605;28;20151;-73
2022/08/11 15:08:13;;;;;;;5.25;1.10;;;30.40;67.20;;;;;;5060024;28;20045;-72
2022/08/11 15:10:39;;;;;;;1.05;0.50;;;30.30;67.50;;;;;;5055263;28;20028;-73
2022/08/11 15:13:05;;;;;;;1.15;0.70;;;30.30;67.10;;;;;;5062741;28;20032;-72
2022/08/11 15:18:19;;;;;;;4.40;0.60;;;30.20;67.00;;;;;;5061553;28;20041;-74
2022/08/11 15:37:25;;;;;;;2.00;0.43;;;29.80;67.30;;;;;;5057782;28;20056;-73
2022/08/11 15:37:28;;;;;;;2.88;0.60;;;29.50;69.90;;;;;;5060417;28;20136;-72
2022/08/11 15:46:00;;;;;;;6.65;0.60;;;29.50;71.10;;;;;;5054319;28;20387;-72
2022/08/11 15:48:34;;;;;;;5.32;0.73;;;29.40;71.20;;;;;;5061045;28;20040;-72
2022/08/11 15:51:29;;;;;;;2.47;0.60;;;29.40;70.90;;;;;;5062376;28;20119;-72
2022/08/11 15:53:58;;;;;;;3.45;0.65;;;29.40;70.90;;;;;;5042989;28;20094;-72
2022/08/11 15:56:26;;;;;;;6.13;0.70;;;29.30;71.40;;;;;;5059732;28;20515;-73
2022/08/11 16:04:29;;;;;;;3.58;0.40;;;29.20;71.60;;;;;;5065042;28;20390;-73
2022/08/11 16:07:00;;;;;;;3.63;0.90;;;29.10;71.60;;;;;;5040728;28;20090;-72
2022/08/11 16:09:35;;;;;;;2.95;0.88;;;29.00;71.70;;;;;;5066198;28;20162;-72
2022/08/11 16:12:22;;;;;;;1.73;0.60;;;29.00;72.10;;;;;;5058321;28;20077;-73
2022/08/11 16:18:05;;;;;;;1.63;0.50;;;29.00;72.80;;;;;;5059882;28;20040;-73
2022/08/11 16:20:33;;;;;;;4.20;1.00;;;28.90;73.20;;;;;;5058483;28;20049;-72
2022/08/11 16:23:03;;;;;;;3.60;0.82;;;28.90;73.40;;;;;;5061643;28;20068;-73
2022/08/11 16:25:33;;;;;;;3.85;0.85;;;28.90;73.60;;;;;;5059474;28;20500;-72
2022/08/11 16:28:04;;;;;;;3.67;1.13;;;28.70;73.60;;;;;;5061437;28;20044;-72
2022/08/11 16:30:34;;;;;;;4.40;0.70;;;28.70;74.10;;;;;;5060663;28;20503;-73
2022/08/11 16:33:03;;;;;;;1.00;0.60;;;28.60;74.30;;;;;;5059633;28;20449;-72
2022/08/11 16:38:35;;;;;;;2.53;0.88;;;28.60;74.80;;;;;;5046050;28;20480;-72
2022/08/11 16:46:59;;;;;;;1.90;0.73;;;28.30;74.60;;;;;;5048382;28;20396;-73
2022/08/11 16:49:34;;;;;;;1.90;0.68;;;28.20;74.90;;;;;;5059189;28;20080;-71
2022/08/11 16:52:02;;;;;;;5.70;0.68;;;28.10;74.90;;;;;;5042725;28;20135;-71
2022/08/11 16:54:32;;;;;;;4.13;0.95;;;28.00;75.10;;;;;;5059299;28;20044;-73
2022/08/11 16:59:12;;;;;;;3.13;0.60;;;28.00;75.20;;;;;;5036079;28;20047;-72
2022/08/11 16:59:48;;;;;;;5.18;0.80;;;27.90;75.60;;;;;;5050443;28;20041;-73
2022/08/11 17:13:55;;;;;;;9.35;1.10;;;27.50;76.30;;;;;;5052207;28;20119;-72
2022/08/11 17:16:30;;;;;;;3.72;0.90;;;27.40;76.90;;;;;;5060453;28;20052;-74
2022/08/11 17:19:01;;;;;;;11.98;1.25;;;27.30;77.20;;;;;;5054360;28;20041;-72
2022/08/11 17:21:35;;;;;;;10.98;1.52;;;27.30;77.80;;;;;;5061588;28;20578;-73
2022/08/11 17:24:09;;;;;;;5.43;1.15;;;27.20;77.90;;;;;;5056358;28;20484;-73
2022/08/11 17:26:57;;;;;;;11.30;1.73;;;27.20;78.80;;;;;;5063137;28;20043;-73
2022/08/11 17:29:25;;;;;;;9.70;1.05;;;27.10;78.60;;;;;;5050608;28;20045;-76
2022/08/11 17:37:27;;;;;;;1.73;0.70;;;26.90;79.30;;;;;;5047407;28;20088;-76
2022/08/11 17:39:55;;;;;;;5.22;0.90;;;26.80;79.50;;;;;;5054514;28;20094;-76
2022/08/11 17:50:40;;;;;;;47.67;4.10;;;26.50;80.70;;;;;;5050811;28;20458;-76
2022/08/11 18:01:24;;;;;;;101.45;8.68;;;26.30;82.10;;;;;;5047387;28;20056;-72
2022/08/11 18:03:51;;;;;;;111.15;8.57;;;26.40;82.60;;;;;;5032316;28;20140;-73
2022/08/11 18:06:19;;;;;;;28.77;3.13;;;26.30;82.80;;;;;;4700226;28;9999800;-73
